This is the latest recevied weather packets stored in our database for station/object NO4D. If no packets are shown the sender has not sent any weather packets the latest 1 day(s).
| Time | Temp. | Humidity | Pressure | Rain* | Wind** | Luminosity | Snow |
|---|---|---|---|---|---|---|---|
| 1778050035 | 18.89° C | 78% | 1014.4 hPa | 0 mm | 0.45 m/s, 134° | 0 W/m² | - |
| 1778049730 | 18.89° C | 78% | 1014.2 hPa | 0 mm | 0 m/s | 0 W/m² | - |
| 1778049429 | 18.89° C | 77% | 1014.2 hPa | 0 mm | 0.45 m/s, 207° | 0 W/m² | - |
| 1778049125 | 18.89° C | 77% | 1014.1 hPa | 0 mm | 0.89 m/s, 202° | 0 W/m² | - |
| 1778048824 | 18.89° C | 77% | 1014 hPa | 0 mm | 0 m/s | 0 W/m² | - |
| 1778048520 | 18.89° C | 77% | 1014.2 hPa | 0 mm | 0.89 m/s, 153° | 0 W/m² | - |
| 1778048216 | 18.89° C | 76% | 1014.1 hPa | 0 mm | 0 m/s | 0 W/m² | - |
| 1778047914 | 18.89° C | 76% | 1014.2 hPa | 0 mm | 0.45 m/s, 155° | 0 W/m² | - |
| 1778047613 | 18.89° C | 76% | 1014.1 hPa | 0 mm | 0.45 m/s, 128° | 0 W/m² | - |
| 1778047309 | 18.89° C | 76% | 1014.1 hPa | 0 mm | 0.89 m/s, 131° | 0 W/m² | - |
| 1778047006 | 18.89° C | 76% | 1014.1 hPa | 0 mm | 2.68 m/s, 161° | 0 W/m² | - |
| 1778046703 | 18.89° C | 75% | 1014.1 hPa | 0 mm | 0.89 m/s, 160° | 0 W/m² | - |
| 1778046400 | 18.33° C | 75% | 1014.2 hPa | 0 mm | 0.45 m/s, 149° | 0 W/m² | - |
| 1778046096 | 18.33° C | 75% | 1014.3 hPa | 0 mm | 0.89 m/s, 180° | 0 W/m² | - |
| 1778045794 | 18.89° C | 74% | 1014.4 hPa | 0 mm | 0.89 m/s, 139° | 0 W/m² | - |
| 1778045492 | 18.89° C | 73% | 1014.3 hPa | 0 mm | 0.45 m/s, 165° | 0 W/m² | - |
| 1778045190 | 18.89° C | 73% | 1014.5 hPa | 0 mm | 1.79 m/s, 139° | 0 W/m² | - |
| 1778044888 | 18.89° C | 72% | 1014.5 hPa | 0 mm | 1.34 m/s, 202° | 0 W/m² | - |
| 1778044585 | 18.89° C | 72% | 1014.4 hPa | 0 mm | 0 m/s | 0 W/m² | - |
| 1778044281 | 18.89° C | 71% | 1014.6 hPa | 0 mm | 1.34 m/s, 158° | 0 W/m² | - |
| 1778043979 | 18.89° C | 70% | 1014.6 hPa | 0 mm | 0 m/s | 0 W/m² | - |
| 1778043676 | 18.89° C | 70% | 1014.5 hPa | 0 mm | 0.45 m/s, 175° | 0 W/m² | - |
| 1778043373 | 18.89° C | 69% | 1014.7 hPa | 0 mm | 1.34 m/s, 163° | 0 W/m² | - |
| 1778043069 | 18.89° C | 68% | 1014.5 hPa | 0 mm | 2.24 m/s, 219° | 0 W/m² | - |
| 1778042767 | 19.44° C | 67% | 1014.4 hPa | 0 mm | 0.45 m/s, 172° | 0 W/m² | - |
* Rain latest hour (hover to see other rain measurements)
** Current wind speed in m/s (hover to see current wind gust speed)